Back to Top
Banner_Quays_at_Mast_2020.jpeg
Banner_VERITY.jpeg
Banner_P42_Kinsale_2004.jpeg
Superyacht_SCOUT.jpg
Kinsale_Trawlers_Banner.jpeg
previous arrow
next arrow

Port Arrivals Report (AIS)

This report is generated from collected AIS (Automated Identification System) signals from vessels entering port.

IMO MMSI Class Flag Vessel Name Vessel type Nav Status Destination Call Sign Latitude Longitude Speed (kts) Course (T) Draught (m) LOA (m) Beam (m) Timestamp
0 50000954 A 500 JENNY M FISHING. Engaged in Fishing FISHING GROUNDS EIBN6 51.689 -8.49951 6.9 346.5 2.8 19 4 2024-06-05 19:57:25
0 227532150 B FR - - 51.6881 -8.49905 5.4 4.7 0 0 0 2024-06-05 17:50:35
0 232048803 B GB VIRGINIA Pleasure craft - MNZI3 51.689 -8.49715 15.3 337.6 0 0 0 2024-06-05 16:39:37
0 227223230 B FR ILO SAILING. - FAB6509 51.6884 -8.499 5.9 348.2 0 12 4 2024-06-05 15:45:05
0 227219970 B FR EZODI SAILING. - FAB6173 51.6884 -8.4996 6.1 343.8 0 10 4 2024-06-05 15:43:02
0 368052020 B US CRYPTIC SECRET SAILING. - WDK4116 51.6879 -8.49821 3.3 346.2 0 11 4 2024-06-05 13:24:46
0 250103750 B IE HARPY DREDGING / UNDERWATER Ops. - EI7410 51.6893 -8.50158 8.5 345.3 0 13 4 2024-06-05 13:09:09
0 235037268 B GB THALMIA SOLO SAILOR SAILING. - MELM 4 51.6878 -8.49629 4.7 343.7 0 10 3 2024-06-05 10:43:37
0 235013903 B GB - - 51.6903 -8.5 4.5 342.7 0 0 0 2024-06-04 17:08:08
0 232032968 B GB SAORSA SAILING. - MIPN5 51.6872 -8.49863 3 327.7 0 13 4 2024-06-04 17:01:07
0 235008762 B GB JOCALIA SAILING. - VQJG5 51.6873 -8.49916 4.5 312.4 0 11 4 2024-06-04 15:37:32
0 250005938 B IE ATLANTIS 11 KINSALE SAILING. - EI-WU-3 51.6879 -8.4994 5.1 350.2 0 19 15 2024-06-04 14:01:28
0 205234170 B BE LIBERTY SAILING. - OQ2341 51.6881 -8.49964 4.8 349.8 0 10 3 2024-06-04 05:25:10
0 227495520 B FR FRANKIZ SOLO SAILOR SAILING. - FAE6227 51.6879 -8.50018 3.1 359.5 0 6 0 2024-06-04 05:12:00
0 250003764 B IE MICHELLE FISHING. - EI-8817 51.6881 -8.49771 6 340.4 0 10 4 2024-06-03 18:03:08
0 250001825 B IE OCEAN RANGER Pleasure craft - EIHP5 51.6882 -8.5007 7.2 348.7 0 12 5 2024-06-03 17:54:42
0 227772270 B FR SEXTANT SAILING. - FH9505 51.6871 -8.49834 4.1 12.5 0 11 4 2024-06-03 16:47:11
0 250006094 B IE MISTRAL SAILING. - EI-XL-5 51.6875 -8.49915 5.3 5 0 13 4 2024-06-03 16:22:49
0 250003294 B IE STILL MAGIC SAILING. - EI-JP-6 51.6878 -8.49834 6.9 347.5 0 12 3 2024-06-03 15:15:46
0 250013607 B IE DRUMLIN SAILING. - EIA2063 51.6871 -8.49858 3.8 345.3 0 10 4 2024-06-03 14:19:20